Terminal Aerodrome Forecast
Issued by NWS

Home | Current Version | Previous Version | Text Only | Print | Product List | Glossary On
Versions: 1 2 3 4 5 6 7 8 9 10 11 12 13 14 15 16 17
989
FTUS42 KILM 101603 AAA
TAFCRE
TAF AMD
KCRE 101603Z 1016/1112 29011G18KT P6SM SCT040
     FM110100 25009KT P6SM SKC=

USA.gov is the U.S. government's official web portal to all federal, state and local government web resources and services.